Home > Products > Valid Products > MTR

000
SAUS45 KPUB 251857
MTRSPD
METAR KSPD 251856Z AUTO 17008KT 28/M01 A3012 RMK AO1 SLP144
T02831006





000
SAUS45 KPUB 251757
MTRSPD
METAR KSPD 251756Z AUTO 16003KT 27/M01 A3014 RMK AO1 SLP155
T02721011 10272 20072 58008





000
SAUS45 KPUB 251757
MTRSPD
METAR KSPD 251756Z AUTO 16003KT 27/M01 A3014 RMK AO1 SLP155
T02721011 10272 20072 58008





000
SAUS45 KPUB 251657
MTRSPD
METAR KSPD 251656Z AUTO 00000KT 26/M02 A3017 RMK AO1 SLP162
T02611017





000
SAUS45 KPUB 251657
MTRSPD
METAR KSPD 251656Z AUTO 00000KT 26/M02 A3017 RMK AO1 SLP162
T02611017





000
SAUS45 KPUB 251557
MTRSPD
METAR KSPD 251556Z AUTO 31012KT 23/M02 A3017 RMK AO1 SLP168
T02331017





000
SAUS45 KPUB 251457
MTRSPD
METAR KSPD 251456Z AUTO 30011KT 20/00 A3017 RMK AO1 SLP171 T02000000
53006





000
SAUS45 KPUB 251358
MTRSPD
METAR KSPD 251356Z AUTO 30008KT 12/01 A3016 RMK AO1 SLP177 T01220011





000
SAUS45 KPUB 251257
MTRSPD
METAR KSPD 251256Z AUTO 30007KT 08/01 A3015 RMK AO1 SLP174 T00830011





000
SAUS45 KPUB 251157
MTRSPD
METAR KSPD 251156Z AUTO 27004KT 08/02 A3015 RMK AO1 SLP165 T00780022
10128 20072 55000





000
SAUS45 KPUB 251157
MTRSPD
METAR KSPD 251156Z AUTO 27004KT 08/02 A3015 RMK AO1 SLP165 T00780022
10128 20072 55000





000
SAUS45 KPUB 251057
MTRSPD
METAR KSPD 251056Z AUTO 27004KT 08/02 A3014 RMK AO1 SLP157 T00830022





000
SAUS45 KPUB 251057
MTRSPD
METAR KSPD 251056Z AUTO 27004KT 08/02 A3014 RMK AO1 SLP157 T00830022





000
SAUS45 KPUB 250957
MTRSPD
METAR KSPD 250956Z AUTO 00000KT 09/02 A3015 RMK AO1 SLP156 T00890022





000
SAUS45 KPUB 250857
MTRSPD
METAR KSPD 250856Z AUTO 26005KT 09/02 A3015 RMK AO1 SLP156 T00940017
55002





000
SAUS45 KPUB 250757
MTRSPD
METAR KSPD 250756Z AUTO 27006KT 13/02 A3015 RMK AO1 SLP150 T01280017





000
SAUS45 KPUB 250657
MTRSPD
METAR KSPD 250656Z AUTO 24006KT 10/02 A3015 RMK AO1 SLP158 T01000022
402890072





000
SAUS45 KPUB 250557
MTRSPD
METAR KSPD 250556Z AUTO 24007KT 11/03 A3016 RMK AO1 SLP159 T01060028
10244 20106 50002





000
SAUS45 KPUB 250457
MTRSPD
METAR KSPD 250456Z AUTO 23008KT 12/03 A3016 RMK AO1 SLP160 T01220028





000
SAUS45 KPUB 250357
MTRSPD
METAR KSPD 250356Z AUTO 23007KT 12/03 A3016 RMK AO1 SLP162 T01170033





000
SAUS45 KPUB 250357
MTRSPD
METAR KSPD 250356Z AUTO 23007KT 12/03 A3016 RMK AO1 SLP162 T01170033





000
SAUS45 KPUB 250257
MTRSPD
METAR KSPD 250256Z AUTO 23009KT 13/03 A3015 RMK AO1 SLP162 T01280033
51013





000
SAUS45 KPUB 250157
MTRSPD
METAR KSPD 250156Z AUTO 21006KT 15/03 A3014 RMK AO1 SLP168 T01500033





000
SAUS45 KPUB 250057
MTRSPD
METAR KSPD 250056Z AUTO 00000KT 18/02 A3013 RMK AO1 SLP164 T01780022





000
SAUS45 KPUB 242357
MTRSPD
METAR KSPD 242356Z AUTO 13004KT 24/02 A3010 RMK AO1 SLP147 T02440022
10289 20244 53002





000
SAUS45 KPUB 242257
MTRSPD
METAR KSPD 242256Z AUTO 00000KT 28/00 A3010 RMK AO1 SLP136 T02780000





000
SAUS45 KPUB 242157
MTRSPD
METAR KSPD 242156Z AUTO 28/M01 A3010 RMK AO1 SLP140 T02831006





000
SAUS45 KPUB 242057
MTRSPD
METAR KSPD 242056Z AUTO 18006KT 29/00 A3010 RMK AO1 SLP139 T02890000
56017





000
SAUS45 KPUB 241957
MTRSPD
METAR KSPD 241956Z AUTO 18009G15KT 29/01 A3011 RMK AO1 SLP141
T02890006





000
SAUS45 KPUB 241957
MTRSPD
METAR KSPD 241956Z AUTO 18009G15KT 29/01 A3011 RMK AO1 SLP141
T02890006





000
SAUS45 KPUB 241857
MTRSPD
METAR KSPD 241856Z AUTO 22006KT 28/01 A3013 RMK AO1 SLP149 T02830011





000
SAUS45 KPUB 241757
MTRSPD
METAR KSPD 241756Z AUTO VRB04KT 28/01 A3016 RMK AO1 SLP161 T02780006
10283 20072 50000





000
SAUS45 KPUB 241657
MTRSPD
METAR KSPD 241656Z AUTO 00000KT 27/01 A3017 RMK AO1 SLP165 T02670006





000
SAUS45 KPUB 241557
MTRSPD
METAR KSPD 241556Z AUTO 30008KT 26/03 A3017 RMK AO1 SLP163 T02560028





000
SAUS45 KPUB 241457
MTRSPD
METAR KSPD 241456Z AUTO 29007KT 21/05 A3016 RMK AO1 SLP165 T02110050
53012





000
SAUS45 KPUB 241357
MTRSPD
METAR KSPD 241356Z AUTO 30009KT 13/05 A3014 RMK AO1 SLP173 T01280050





000
SAUS45 KPUB 241257
MTRSPD
METAR KSPD 241256Z AUTO 26004KT 10/04 A3012 RMK AO1 SLP168 T01000044





000
SAUS45 KPUB 241157
MTRSPD
METAR KSPD 241156Z AUTO 25006KT 08/06 A3012 RMK AO1 SLP162 T00830061
10122 20083 55005





000
SAUS45 KPUB 241057
MTRSPD
METAR KSPD 241056Z AUTO 28004KT 12/08 A3011 RMK AO1 SLP149 T01170078





000
SAUS45 KPUB 241057
MTRSPD
METAR KSPD 241056Z AUTO 28004KT 12/08 A3011 RMK AO1 SLP149 T01170078





000
SAUS45 KPUB 240957
MTRSPD
METAR KSPD 240956Z AUTO VRB03KT 09/07 A3012 RMK AO1 SLP155 T00890067





000
SAUS45 KPUB 240957
MTRSPD
METAR KSPD 240956Z AUTO VRB03KT 09/07 A3012 RMK AO1 SLP155 T00890067





000
SAUS45 KPUB 240857
MTRSPD
METAR KSPD 240856Z AUTO 00000KT 09/07 A3013 RMK AO1 SLP157 T00940072
58003





000
SAUS45 KPUB 240757
MTRSPD
METAR KSPD 240756Z AUTO 00000KT 10/08 A3014 RMK AO1 SLP161 T01000078





000
SAUS45 KPUB 240657
MTRSPD
METAR KSPD 240656Z AUTO 25006KT 10/08 A3014 RMK AO1 SLP163 T01000083
402390067





000
SAUS45 KPUB 240557
MTRSPD
METAR KSPD 240556Z AUTO 24006KT 09/08 A3014 RMK AO1 SLP165 T00890078
10178 20083 58002





000
SAUS45 KPUB 240457
MTRSPD
METAR KSPD 240456Z AUTO 25004KT 09/08 A3015 RMK AO1 SLP170 T00940078





000
SAUS45 KPUB 240457
MTRSPD
METAR KSPD 240456Z AUTO 25004KT 09/08 A3015 RMK AO1 SLP170 T00940078





000
SAUS45 KPUB 240357
MTRSPD
METAR KSPD 240356Z AUTO 24006KT 12/09 A3015 RMK AO1 SLP170 T01170089





000
SAUS45 KPUB 240357
MTRSPD
METAR KSPD 240356Z AUTO 24006KT 12/09 A3015 RMK AO1 SLP170 T01170089





000
SAUS45 KPUB 240257
MTRSPD
METAR KSPD 240256Z AUTO 24003KT 12/09 A3015 RMK AO1 SLP174 T01170089
51010





000
SAUS45 KPUB 240257
MTRSPD
METAR KSPD 240256Z AUTO 24003KT 12/09 A3015 RMK AO1 SLP174 T01170089
51010





000
SAUS45 KPUB 240157
MTRSPD
METAR KSPD 240156Z AUTO 22005KT 13/09 A3014 RMK AO1 SLP175 T01280089





000
SAUS45 KPUB 240157
MTRSPD
METAR KSPD 240156Z AUTO 22005KT 13/09 A3014 RMK AO1 SLP175 T01280089





000
SAUS45 KPUB 240057
MTRSPD
METAR KSPD 240056Z AUTO 17005KT 14/09 A3014 RMK AO1 SLP176 T01440094





000
SAUS45 KPUB 232357
MTRSPD
METAR KSPD 232356Z AUTO 12006KT 18/10 A3012 RMK AO1 SLP164 T01780100
10239 20178 53009





000
SAUS45 KPUB 232257
MTRSPD
METAR KSPD 232256Z AUTO 13003KT 22/09 A3010 RMK AO1 SLP151 T02220089





000
SAUS45 KPUB 232157
MTRSPD
METAR KSPD 232156Z AUTO 00000KT 23/08 A3009 RMK AO1 SLP143 T02330083





000
SAUS45 KPUB 232057
MTRSPD
METAR KSPD 232056Z AUTO 10005KT 23/09 A3009 RMK AO1 SLP141 T02330089
58020





000
SAUS45 KPUB 231958
MTRSPD
METAR KSPD 231956Z AUTO 15004KT 22/09 A3011 RMK AO1 SLP152 T02220089





000
SAUS45 KPUB 231958
MTRSPD
METAR KSPD 231956Z AUTO 15004KT 22/09 A3011 RMK AO1 SLP152 T02220089





000
SAUS45 KPUB 231857
MTRSPD
METAR KSPD 231856Z AUTO VRB04KT 22/09 A3013 RMK AO1 SLP161 T02220089





000
SAUS45 KPUB 231857
MTRSPD
METAR KSPD 231856Z AUTO VRB04KT 22/09 A3013 RMK AO1 SLP161 T02220089





000
SAUS45 KPUB 231757
MTRSPD
METAR KSPD 231756Z AUTO 04006KT 22/08 A3015 RMK AO1 SLP166 T02220083
10222 20067 58004





000
SAUS45 KPUB 231757
MTRSPD
METAR KSPD 231756Z AUTO 04006KT 22/08 A3015 RMK AO1 SLP166 T02220083
10222 20067 58004





000
SAUS45 KPUB 231657
MTRSPD
METAR KSPD 231656Z AUTO 36005KT 20/08 A3017 RMK AO1 SLP173 T02000083





000
SAUS45 KPUB 231657
MTRSPD
METAR KSPD 231656Z AUTO 36005KT 20/08 A3017 RMK AO1 SLP173 T02000083





000
SAUS45 KPUB 231557
MTRSPD
METAR KSPD 231556Z AUTO 33010KT 18/09 A3017 RMK AO1 SLP173 T01830089





000
SAUS45 KPUB 231457
MTRSPD
METAR KSPD 231456Z AUTO 32011KT 15/09 A3016 RMK AO1 SLP177 T01500094
53016





000
SAUS45 KPUB 231457
MTRSPD
METAR KSPD 231456Z AUTO 32011KT 15/09 A3016 RMK AO1 SLP177 T01500094
53016





000
SAUS45 KPUB 231357
MTRSPD
METAR KSPD 231356Z AUTO 31008KT 09/08 A3014 RMK AO1 SLP174 T00940083





000
SAUS45 KPUB 231257
MTRSPD
METAR KSPD 231256Z AUTO 30007KT 07/06 A3012 RMK AO1 SLP168 T00720061





000
SAUS45 KPUB 231157
MTRSPD
METAR KSPD 231156Z AUTO 28005KT 07/06 A3011 RMK AO1 SLP162 T00720061
10100 20067 53004





000
SAUS45 KPUB 231057
MTRSPD
METAR KSPD 231056Z AUTO 29005KT 08/07 A3010 RMK AO1 SLP152 T00780067





000
SAUS45 KPUB 230957
MTRSPD
METAR KSPD 230956Z AUTO 29003KT 09/08 A3009 RMK AO1 SLP144 T00940078





000
SAUS45 KPUB 230957
MTRSPD
METAR KSPD 230956Z AUTO 29003KT 09/08 A3009 RMK AO1 SLP144 T00940078





000
SAUS45 KPUB 230857
MTRSPD
METAR KSPD 230856Z AUTO 31003KT 10/08 A3010 RMK AO1 SLP145 T01000083
58005





000
SAUS45 KPUB 230757
MTRSPD
METAR KSPD 230756Z AUTO 32006KT 08/07 A3011 RMK AO1 SLP153 T00830072





000
SAUS45 KPUB 230657
MTRSPD
METAR KSPD 230656Z AUTO 00000KT 09/07 A3011 RMK AO1 SLP153 T00890072
402330067





000
SAUS45 KPUB 230557
MTRSPD
METAR KSPD 230556Z AUTO 00000KT 10/07 A3011 RMK AO1 SLP152 T01000072
10178 20094 50003





000
SAUS45 KPUB 230457
MTRSPD
METAR KSPD 230456Z AUTO 00000KT 11/07 A3013 RMK AO1 SLP160 T01060072





000
SAUS45 KPUB 230457
MTRSPD
METAR KSPD 230456Z AUTO 00000KT 11/07 A3013 RMK AO1 SLP160 T01060072





000
SAUS45 KPUB 230357
MTRSPD
METAR KSPD 230356Z AUTO 07004KT 13/07 A3013 RMK AO1 SLP158 T01280072





000
SAUS45 KPUB 230357
MTRSPD
METAR KSPD 230356Z AUTO 07004KT 13/07 A3013 RMK AO1 SLP158 T01280072





000
SAUS45 KPUB 230258
MTRSPD
METAR KSPD 230256Z AUTO 04005KT 13/07 A3010 RMK AO1 SLP154 T01280067
51013





000
SAUS45 KPUB 230157
MTRSPD
METAR KSPD 230156Z AUTO 05005KT 13/07 A3009 RMK AO1 SLP153 T01330067





000
SAUS45 KPUB 230157
MTRSPD
METAR KSPD 230156Z AUTO 05005KT 13/07 A3009 RMK AO1 SLP153 T01330067





000
SAUS45 KPUB 230057
MTRSPD
METAR KSPD 230056Z AUTO 06003KT 16/07 A3007 RMK AO1 SLP144 T01560067





000
SAUS45 KPUB 230057
MTRSPD
METAR KSPD 230056Z AUTO 06003KT 16/07 A3007 RMK AO1 SLP144 T01560067





000
SAUS45 KPUB 222357
MTRSPD
METAR KSPD 222356Z AUTO 06006KT 18/07 A3006 RMK AO1 SLP136 T01780067
10233 20178 53007





000
SAUS45 KPUB 222357
MTRSPD
METAR KSPD 222356Z AUTO 06006KT 18/07 A3006 RMK AO1 SLP136 T01780067
10233 20178 53007





000
SAUS45 KPUB 222257
MTRSPD
METAR KSPD 222256Z AUTO VRB06KT 22/06 A3005 RMK AO1 SLP126 T02170061





000
SAUS45 KPUB 222257
MTRSPD
METAR KSPD 222256Z AUTO VRB06KT 22/06 A3005 RMK AO1 SLP126 T02170061





000
SAUS45 KPUB 222157
MTRSPD
METAR KSPD 222156Z AUTO 01009KT 23/06 A3004 RMK AO1 SLP122 T02280061





000
SAUS45 KPUB 222057
MTRSPD
METAR KSPD 222056Z AUTO 04005KT 23/06 A3004 RMK AO1 SLP119 T02280061
56010





000
SAUS45 KPUB 221957
MTRSPD
METAR KSPD 221956Z AUTO 03006G14KT 23/06 A3004 RMK AO1 SLP120
T02280061





    US Dept of Commerce
    National Oceanic and Atmospheric Administration
    National Weather Service
    1325 East West Highway
    Silver Spring, MD 20910
    Page Author: NWS Internet Services Team
Disclaimer
Information Quality
Credits
Glossary
Privacy Policy
Freedom of Information Act (FOIA)
About Us
Career Opportunities